Time;durP1;ratioP1;P1;durP2;ratioP2;P2;SDS_P1;SDS_P2;PMS_P1;PMS_P2;Temp;Humidity;BMP_temperature;BMP_pressure;BME280_temperature;BME280_humidity;BME280_pressure;Samples;Min_cycle;Max_cycle;Signal;HPM_P1;HPM_P2
2020/12/04 00:00:12;;;;;;;1.75;1.30;;;5.90;99.90;;;5.32;82.63;97868.88;4202759;28;20493;-73
2020/12/04 00:02:13;;;;;;;4.88;2.08;;;5.90;99.90;;;4.97;83.88;97860.25;4201298;28;20039;-72
2020/12/04 00:04:13;;;;;;;4.03;2.40;;;5.80;99.90;;;5.09;83.71;97868.34;4189187;28;20029;-72
2020/12/04 00:06:14;;;;;;;11.43;2.92;;;5.90;99.90;;;5.05;83.85;97877.56;4184654;28;20029;-72
2020/12/04 00:08:15;;;;;;;4.85;1.95;;;5.80;99.90;;;5.11;83.59;97879.41;4185815;28;20021;-72
2020/12/04 00:10:16;;;;;;;2.95;2.00;;;5.70;99.90;;;4.96;84.04;97884.72;4184909;28;20041;-72
2020/12/04 00:12:17;;;;;;;6.40;1.95;;;5.70;99.90;;;4.97;84.45;97875.91;4185735;28;20138;-72
2020/12/04 00:14:18;;;;;;;5.05;2.15;;;5.70;99.90;;;4.67;84.56;97865.81;4184552;28;20033;-72
2020/12/04 00:16:19;;;;;;;2.72;2.53;;;5.60;99.90;;;4.81;84.23;97862.31;4185928;28;20017;-72
2020/12/04 00:18:20;;;;;;;3.35;2.05;;;5.60;99.90;;;5.01;84.25;97878.97;4185749;28;20036;-72
2020/12/04 00:20:21;;;;;;;2.45;1.50;;;5.60;99.90;;;4.97;83.87;97878.53;4184793;28;20028;-72
2020/12/04 00:22:22;;;;;;;3.67;1.67;;;5.70;99.90;;;5.00;83.77;97887.78;4185603;28;20150;-73
2020/12/04 00:24:22;;;;;;;5.32;3.08;;;5.60;99.90;;;4.93;83.49;97884.31;4184658;28;20036;-72
2020/12/04 00:26:23;;;;;;;8.57;4.45;;;5.60;99.90;;;4.74;84.80;97882.38;4185934;28;20380;-72
2020/12/04 00:28:24;;;;;;;10.10;4.97;;;5.60;99.90;;;4.85;84.83;97892.28;4185674;28;20025;-72
2020/12/04 00:30:25;;;;;;;7.10;4.45;;;5.50;99.90;;;5.12;83.57;97890.66;4190343;28;20059;-73
2020/12/04 00:32:26;;;;;;;6.28;3.50;;;5.50;99.90;;;5.15;83.69;97888.50;4202148;28;20031;-73
2020/12/04 00:34:27;;;;;;;4.40;2.90;;;5.50;99.90;;;5.05;83.46;97889.84;4200901;28;20028;-72
2020/12/04 00:36:28;;;;;;;8.52;3.50;;;5.50;99.90;;;4.99;84.25;97896.59;4202129;28;20025;-72
2020/12/04 00:38:29;;;;;;;6.18;3.00;;;5.50;99.90;;;4.81;84.89;97897.06;4200584;28;20045;-72
2020/12/04 00:40:30;;;;;;;5.85;3.22;;;5.50;99.90;;;4.77;86.24;97897.66;4201702;28;20050;-72
2020/12/04 00:42:31;;;;;;;4.13;2.65;;;5.40;99.90;;;4.79;85.99;97893.03;4200943;28;20036;-72
2020/12/04 00:44:32;;;;;;;4.13;2.40;;;5.40;99.90;;;4.76;86.09;97899.44;4200825;28;20016;-72
2020/12/04 00:46:33;;;;;;;5.25;2.65;;;5.30;99.90;;;4.60;87.69;97898.91;4200805;28;20067;-72
2020/12/04 00:48:34;;;;;;;7.88;3.30;;;5.30;99.90;;;4.66;86.80;97892.94;4200879;28;20028;-72
2020/12/04 00:50:35;;;;;;;5.85;3.17;;;5.30;99.90;;;4.71;86.92;97906.25;4202122;28;20041;-72
2020/12/04 00:52:36;;;;;;;4.72;3.13;;;5.30;99.90;;;4.74;86.61;97890.19;4200358;28;20565;-72
2020/12/04 00:54:36;;;;;;;5.82;3.88;;;5.30;99.90;;;4.55;87.86;97885.59;4201896;28;20036;-72
2020/12/04 00:56:37;;;;;;;5.18;4.35;;;5.30;99.90;;;4.74;87.65;97911.09;4201907;28;20023;-72
2020/12/04 00:58:38;;;;;;;6.53;4.45;;;5.30;99.90;;;4.64;87.51;97895.72;4200656;28;20060;-72
2020/12/04 01:00:39;;;;;;;8.25;5.20;;;5.30;99.90;;;4.79;87.41;97908.72;4202004;28;20387;-72
2020/12/04 01:02:40;;;;;;;6.72;5.43;;;5.30;99.90;;;4.76;86.25;97882.97;4201829;28;20021;-72
2020/12/04 01:04:41;;;;;;;7.40;4.28;;;5.40;99.90;;;4.72;87.31;97892.19;4186065;28;20500;-72
2020/12/04 01:06:42;;;;;;;6.80;4.43;;;5.30;99.90;;;4.79;86.90;97877.38;4183894;28;20096;-72
2020/12/04 01:08:43;;;;;;;6.68;4.72;;;5.30;99.90;;;4.86;86.26;97888.69;4184083;28;20051;-72
2020/12/04 01:10:44;;;;;;;6.45;3.90;;;5.30;99.90;;;4.88;86.60;97882.28;4184097;28;20041;-72
2020/12/04 01:12:45;;;;;;;12.75;5.25;;;5.40;99.90;;;4.79;86.63;97888.63;4184814;28;20393;-72
2020/12/04 01:14:46;;;;;;;6.40;4.10;;;5.30;99.90;;;4.69;86.32;97897.78;4185210;28;20048;-72
2020/12/04 01:16:47;;;;;;;10.13;4.43;;;5.40;99.90;;;4.72;86.91;97897.41;4183954;28;20056;-72
2020/12/04 01:18:48;;;;;;;9.85;4.32;;;5.40;99.90;;;4.71;86.49;97896.59;4183885;28;20039;-72
2020/12/04 01:20:49;;;;;;;11.43;4.82;;;5.40;99.90;;;4.85;85.70;97892.28;4184890;28;20029;-72
2020/12/04 01:22:50;;;;;;;11.18;4.10;;;5.40;99.90;;;4.86;85.08;97896.53;4183700;28;20086;-72
2020/12/04 01:24:51;;;;;;;10.05;4.55;;;5.40;99.90;;;4.69;85.31;97893.34;4185056;28;20033;-72
2020/12/04 01:26:52;;;;;;;8.90;3.63;;;5.40;99.90;;;4.79;84.50;97895.66;4183798;28;20096;-72
2020/12/04 01:28:53;;;;;;;6.05;2.75;;;5.40;99.90;;;4.74;85.08;97901.44;4184882;28;20056;-72
2020/12/04 01:30:54;;;;;;;5.45;2.55;;;5.40;99.90;;;4.79;84.25;97911.31;4185052;28;20357;-72
2020/12/04 01:32:55;;;;;;;6.93;2.70;;;5.40;99.90;;;4.73;84.14;97899.81;4184853;28;20021;-72
2020/12/04 01:34:56;;;;;;;7.93;2.28;;;5.40;99.90;;;4.69;84.17;97914.25;4184949;28;20029;-72
2020/12/04 01:36:57;;;;;;;2.70;1.85;;;5.50;99.90;;;4.86;82.74;97904.34;4197768;28;20059;-72
2020/12/04 01:38:58;;;;;;;5.28;2.22;;;5.50;99.90;;;4.78;82.95;97917.56;4201544;28;20029;-72
2020/12/04 01:41:01;;;;;;;10.27;3.22;;;5.50;99.90;;;4.92;82.67;97909.63;4200367;28;20036;-72
2020/12/04 01:43:02;;;;;;;7.20;2.97;;;5.50;99.90;;;4.84;82.73;97929.84;4200307;28;20096;-72
2020/12/04 01:45:04;;;;;;;5.28;2.00;;;5.50;99.90;;;4.76;82.52;97920.34;4201379;28;20514;-72
2020/12/04 01:47:05;;;;;;;4.55;2.47;;;5.50;99.90;;;4.80;82.75;97923.38;4200362;28;20101;-72
2020/12/04 01:49:06;;;;;;;8.77;3.58;;;5.50;99.90;;;4.62;82.60;97923.03;4200258;28;20032;-72
2020/12/04 01:51:07;;;;;;;3.78;1.92;;;5.40;99.90;;;4.67;83.32;97931.91;4200067;28;20035;-72
2020/12/04 01:53:08;;;;;;;9.07;2.55;;;5.30;99.90;;;4.69;82.11;97931.75;4202180;28;20081;-72
2020/12/04 01:55:10;;;;;;;6.18;2.92;;;5.30;99.90;;;4.74;81.95;97919.72;4203763;28;20084;-72
2020/12/04 01:57:11;;;;;;;9.98;3.40;;;5.30;99.90;;;4.67;82.98;97937.13;4203679;28;20044;-72
2020/12/04 01:59:12;;;;;;;9.10;2.53;;;5.30;99.90;;;4.71;82.59;97942.78;4204801;28;20071;-72
2020/12/04 02:01:17;;;;;;;8.07;2.67;;;5.30;99.90;;;4.59;82.65;97934.66;4203409;28;20103;-72
2020/12/04 02:03:18;;;;;;;5.32;2.22;;;5.30;99.90;;;4.61;82.39;97937.88;4197980;28;20029;-72
2020/12/04 02:05:20;;;;;;;7.90;3.17;;;5.30;99.90;;;4.74;82.45;97938.00;4186954;28;20025;-72
2020/12/04 02:07:50;;;;;;;7.00;2.85;;;5.30;99.90;;;4.67;82.23;97931.09;4187864;28;20037;-72
2020/12/04 02:09:59;;;;;;;10.98;3.65;;;5.30;99.90;;;4.53;82.25;97932.78;4188161;28;20020;-72
2020/12/04 02:12:03;;;;;;;6.63;2.33;;;5.20;99.90;;;4.63;82.29;97929.88;4186788;28;20404;-72
2020/12/04 02:14:04;;;;;;;5.88;2.67;;;5.20;99.90;;;4.46;82.31;97947.56;4186525;28;20028;-72
2020/12/04 02:16:06;;;;;;;6.50;2.97;;;5.20;99.90;;;4.37;82.73;97941.66;4186716;28;20031;-72
2020/12/04 02:18:07;;;;;;;11.02;4.15;;;5.20;99.90;;;4.41;82.40;97942.91;4186716;28;20025;-72
2020/12/04 02:20:12;;;;;;;10.40;3.25;;;5.20;99.90;;;4.47;82.40;97936.97;4186676;28;20025;-72
2020/12/04 02:22:13;;;;;;;9.23;3.40;;;5.20;99.90;;;4.51;82.33;97939.97;4186242;28;20048;-72
2020/12/04 02:24:14;;;;;;;7.78;3.30;;;5.20;99.90;;;4.47;82.20;97947.41;4186647;28;20029;-72
2020/12/04 02:26:19;;;;;;;8.75;3.00;;;5.20;99.90;;;4.51;81.64;97942.59;4186555;28;20102;-72
2020/12/04 02:28:34;;;;;;;7.70;2.33;;;5.20;99.90;;;4.64;81.53;97941.91;4187651;28;20487;-72
2020/12/04 02:30:36;;;;;;;6.90;2.83;;;5.10;99.90;;;4.60;82.29;97948.53;4186403;28;20033;-72
2020/12/04 02:32:36;;;;;;;7.03;3.38;;;5.10;99.90;;;4.71;80.43;97940.19;4187741;28;20487;-72
2020/12/04 02:34:38;;;;;;;7.50;3.60;;;5.10;99.90;;;4.60;81.03;97941.47;4187742;28;20029;-72
2020/12/04 02:36:38;;;;;;;8.80;3.00;;;5.10;99.90;;;4.62;81.15;97938.69;4199394;28;20062;-73
2020/12/04 02:38:39;;;;;;;3.97;2.50;;;5.10;99.90;;;4.40;81.76;97946.50;4202776;28;20021;-72
2020/12/04 02:40:40;;;;;;;9.73;2.55;;;5.10;99.90;;;4.47;82.01;97954.41;4203994;28;20031;-73
2020/12/04 02:42:42;;;;;;;7.15;2.50;;;5.10;99.90;;;4.58;81.08;97947.88;4204147;28;20090;-72
2020/12/04 02:44:43;;;;;;;5.65;3.50;;;5.00;99.90;;;4.66;79.45;97945.94;4202968;28;20028;-72
2020/12/04 02:46:47;;;;;;;8.82;3.10;;;5.10;99.90;;;4.57;80.53;97941.06;4203949;28;20031;-73
2020/12/04 02:48:48;;;;;;;9.20;3.70;;;5.10;99.90;;;4.66;80.34;97943.34;4204089;28;20036;-73
2020/12/04 02:50:49;;;;;;;12.93;4.75;;;5.10;99.90;;;4.56;80.21;97944.66;4203923;28;20551;-72
2020/12/04 02:52:52;;;;;;;14.40;6.20;;;5.10;99.90;;;4.38;80.61;97952.91;4202411;28;20027;-72
2020/12/04 02:54:53;;;;;;;9.13;5.40;;;5.00;99.90;;;4.32;81.04;97949.25;4203756;28;20530;-72
2020/12/04 02:56:54;;;;;;;12.50;6.28;;;5.00;99.90;;;4.34;81.70;97954.25;4203916;28;20033;-72
2020/12/04 02:58:55;;;;;;;7.18;5.00;;;4.90;99.90;;;4.38;81.68;97950.31;4202589;28;20507;-72
2020/12/04 03:00:56;;;;;;;11.15;4.60;;;4.90;99.90;;;4.30;80.73;97940.78;4202614;28;20369;-72
2020/12/04 03:02:57;;;;;;;9.60;4.70;;;4.90;99.90;;;4.40;81.25;97936.06;4199995;28;20484;-72
2020/12/04 03:04:58;;;;;;;5.88;3.03;;;4.90;99.90;;;4.42;80.50;97948.94;4202540;28;20033;-72
2020/12/04 03:06:59;;;;;;;6.20;2.92;;;4.90;99.90;;;4.33;80.59;97945.63;4218991;28;20031;-72
2020/12/04 03:09:01;;;;;;;8.30;2.20;;;4.90;99.90;;;4.44;80.29;97947.75;4203744;28;20389;-72
2020/12/04 03:11:02;;;;;;;6.65;2.60;;;4.90;99.90;;;4.42;80.00;97949.72;4202127;28;20092;-73
2020/12/04 03:13:04;;;;;;;9.00;2.92;;;4.90;99.90;;;4.38;80.44;97945.91;4202477;28;20068;-72
2020/12/04 03:15:05;;;;;;;8.40;3.30;;;4.90;99.90;;;4.44;80.41;97952.16;4202447;28;20544;-73
2020/12/04 03:17:06;;;;;;;6.82;3.00;;;4.90;99.90;;;4.48;79.09;97949.00;4202404;28;20430;-72
2020/12/04 03:19:07;;;;;;;6.32;2.60;;;4.90;99.90;;;4.44;79.66;97942.53;4202215;28;20075;-73
2020/12/04 03:21:09;;;;;;;6.10;2.30;;;4.90;99.90;;;4.46;80.17;97952.78;4203588;28;20036;-73
2020/12/04 03:23:10;;;;;;;8.55;2.40;;;4.90;99.90;;;4.55;78.61;97941.22;4202141;28;20369;-72
2020/12/04 03:25:11;;;;;;;8.02;2.78;;;4.90;99.90;;;4.21;79.48;97941.88;4203505;28;20035;-72
2020/12/04 03:27:12;;;;;;;4.43;2.20;;;4.90;99.90;;;4.24;80.35;97938.91;4202154;28;20392;-72
2020/12/04 03:29:13;;;;;;;10.68;2.38;;;4.80;99.90;;;4.28;80.07;97944.56;4203529;28;20430;-72
2020/12/04 03:31:13;;;;;;;9.57;2.53;;;4.80;99.90;;;4.35;79.19;97953.28;4202241;28;20024;-72
2020/12/04 03:33:14;;;;;;;5.60;2.67;;;4.80;99.90;;;4.32;80.04;97951.84;4201864;28;20102;-72
2020/12/04 03:35:15;;;;;;;7.78;2.30;;;4.80;99.90;;;4.36;79.19;97947.84;4203173;28;20113;-73
2020/12/04 03:37:16;;;;;;;7.97;2.30;;;4.80;99.90;;;4.31;80.00;97947.63;4202004;28;20102;-73
2020/12/04 03:39:17;;;;;;;9.50;2.70;;;4.80;99.90;;;4.20;79.49;97940.28;4193825;28;20029;-73
2020/12/04 03:41:18;;;;;;;4.93;2.58;;;4.70;99.90;;;4.40;78.69;97945.69;4203216;28;20392;-73
2020/12/04 03:43:19;;;;;;;7.82;2.10;;;4.80;99.90;;;4.14;79.69;97938.41;4203121;28;20109;-73
2020/12/04 03:45:20;;;;;;;3.45;2.05;;;4.80;99.90;;;4.23;80.06;97937.31;4203239;28;20036;-73
2020/12/04 03:47:21;;;;;;;5.68;2.13;;;4.80;99.90;;;4.27;78.77;97935.91;4202025;28;20080;-73
2020/12/04 03:49:22;;;;;;;5.00;1.90;;;4.80;99.90;;;4.27;79.33;97943.75;4203117;28;20454;-73
2020/12/04 03:51:23;;;;;;;5.95;2.20;;;4.70;99.90;;;4.19;79.37;97932.63;4201876;28;20150;-73
2020/12/04 03:53:24;;;;;;;4.20;2.20;;;4.70;99.90;;;4.37;79.08;97943.47;4202868;28;20028;-73
2020/12/04 03:55:25;;;;;;;7.90;2.45;;;4.70;99.90;;;4.32;79.13;97932.78;4203113;28;20028;-73
2020/12/04 03:57:26;;;;;;;5.00;2.08;;;4.70;99.90;;;4.20;79.02;97937.66;4201691;28;20127;-73
2020/12/04 03:59:28;;;;;;;16.75;2.97;;;4.70;99.90;;;4.27;78.30;97935.91;4201748;28;20103;-73
2020/12/04 04:01:30;;;;;;;9.60;2.63;;;4.70;99.90;;;4.25;79.17;97931.88;4203002;28;20024;-73
2020/12/04 04:03:31;;;;;;;6.80;2.80;;;4.60;99.90;;;4.17;78.67;97918.97;4198908;28;20029;-73
2020/12/04 04:05:31;;;;;;;8.38;2.95;;;4.70;99.90;;;4.11;79.68;97930.13;4218435;28;20071;-73
2020/12/04 04:07:32;;;;;;;10.02;2.95;;;4.60;99.90;;;4.08;79.98;97928.69;4201371;28;20530;-73
2020/12/04 04:09:33;;;;;;;6.25;2.90;;;4.50;99.90;;;4.03;79.94;97932.84;4201631;28;20530;-72
2020/12/04 04:11:34;;;;;;;8.50;3.47;;;4.50;99.90;;;4.29;78.71;97927.91;4201459;28;20531;-73
2020/12/04 04:13:36;;;;;;;15.15;5.45;;;4.50;99.90;;;4.28;78.31;97939.34;4201553;28;20063;-72
2020/12/04 04:15:37;;;;;;;10.18;4.15;;;4.60;99.90;;;4.06;79.30;97932.50;4200922;28;20099;-73
2020/12/04 04:17:38;;;;;;;10.70;4.72;;;4.50;99.90;;;4.00;79.35;97928.81;4202589;28;20058;-72
2020/12/04 04:19:39;;;;;;;11.40;4.75;;;4.50;99.90;;;3.97;79.14;97933.59;4202748;28;20016;-73
2020/12/04 04:21:40;;;;;;;10.90;6.20;;;4.50;99.90;;;3.93;79.58;97938.34;4201231;28;20137;-73
2020/12/04 04:23:41;;;;;;;11.82;5.55;;;4.40;99.90;;;3.94;79.98;97941.78;4201384;28;20056;-73
2020/12/04 04:25:42;;;;;;;16.27;6.65;;;4.40;99.90;;;3.89;80.72;97942.31;4202502;28;20070;-73
2020/12/04 04:27:43;;;;;;;11.48;5.35;;;4.40;99.90;;;3.86;80.29;97933.06;4202599;28;20111;-73
2020/12/04 04:29:44;;;;;;;11.48;5.18;;;4.30;99.90;;;3.78;81.26;97945.38;4202469;28;20032;-73
2020/12/04 04:31:52;;;;;;;7.22;4.57;;;4.30;99.90;;;3.91;80.51;97942.94;4201236;28;20587;-73
2020/12/04 04:33:53;;;;;;;11.27;4.50;;;4.30;99.90;;;3.75;80.24;97951.78;4201093;28;20055;-73
2020/12/04 04:35:54;;;;;;;7.80;2.90;;;4.30;99.90;;;3.93;80.42;97956.59;4202438;28;20154;-73
2020/12/04 04:37:57;;;;;;;4.20;2.35;;;4.30;99.90;;;4.00;79.88;97951.47;4202099;28;20503;-73
2020/12/04 04:39:58;;;;;;;6.68;2.03;;;4.40;99.90;;;4.11;79.18;97954.41;4201146;28;20060;-72
2020/12/04 04:41:59;;;;;;;7.85;2.17;;;4.40;99.90;;;4.03;79.38;97958.94;4202229;28;20036;-73
2020/12/04 04:44:00;;;;;;;5.95;2.15;;;4.40;99.90;;;4.04;79.52;97956.13;4200956;28;20466;-73
2020/12/04 04:46:43;;;;;;;4.50;1.60;;;4.40;99.90;;;4.06;78.96;97946.31;4201176;28;20060;-73
2020/12/04 04:48:54;;;;;;;4.13;2.10;;;4.40;99.90;;;3.94;80.18;97947.81;4175500;28;20109;-73
2020/12/04 04:50:57;;;;;;;6.85;1.90;;;4.40;99.90;;;4.09;79.04;97953.78;4217526;28;20032;-73
2020/12/04 04:52:59;;;;;;;6.25;1.88;;;4.40;99.90;;;4.11;79.44;97951.00;4200652;28;20024;-72
2020/12/04 04:55:01;;;;;;;6.55;2.55;;;4.40;99.90;;;4.00;79.70;97948.88;4200915;28;20507;-72
2020/12/04 04:57:03;;;;;;;6.25;1.95;;;4.40;99.90;;;4.09;78.46;97948.56;4201005;28;20021;-72
2020/12/04 04:59:07;;;;;;;3.90;1.70;;;4.50;99.90;;;3.73;79.67;97932.88;4200890;28;20116;-72
2020/12/04 05:01:08;;;;;;;6.45;1.95;;;4.40;99.90;;;4.05;79.16;97947.31;4201781;28;20384;-72
2020/12/04 05:03:09;;;;;;;4.78;2.00;;;4.40;99.90;;;3.95;79.25;97949.41;4197225;28;20056;-72
2020/12/04 05:05:10;;;;;;;5.25;1.92;;;4.40;99.90;;;3.98;79.46;97964.69;4200904;28;20035;-72
2020/12/04 05:07:11;;;;;;;6.70;2.60;;;4.40;99.90;;;3.97;78.90;97965.69;4201623;28;20391;-72
2020/12/04 05:09:20;;;;;;;13.10;3.90;;;4.50;99.90;;;3.92;79.51;97968.00;4201918;28;20035;-72
2020/12/04 05:11:21;;;;;;;6.28;1.77;;;4.40;99.90;;;3.95;79.78;97962.44;4200608;28;20079;-72
2020/12/04 05:13:22;;;;;;;6.47;2.78;;;4.40;99.90;;;4.10;78.89;97971.06;4200553;28;20055;-72
2020/12/04 05:15:28;;;;;;;7.07;2.33;;;4.50;99.90;;;4.04;79.78;97968.34;4193984;28;20028;-72
2020/12/04 05:17:29;;;;;;;7.22;2.38;;;4.50;99.90;;;4.05;79.93;97977.81;4201696;28;20032;-72
2020/12/04 05:19:39;;;;;;;4.38;2.20;;;4.40;99.90;;;4.17;78.66;97973.75;4200782;28;20024;-73
2020/12/04 05:21:40;;;;;;;8.48;2.20;;;4.50;99.90;;;3.99;78.88;97970.72;4200182;28;20023;-72
2020/12/04 05:23:53;;;;;;;11.10;2.65;;;4.50;99.90;;;3.82;79.84;97968.28;4201713;28;20039;-72
2020/12/04 05:25:55;;;;;;;4.57;1.98;;;4.40;99.90;;;3.86;80.61;97964.34;4200442;28;20021;-72
2020/12/04 05:28:08;;;;;;;7.95;2.50;;;4.40;99.90;;;4.07;79.84;97960.16;4200557;28;20063;-72
2020/12/04 05:30:08;;;;;;;7.40;2.47;;;4.50;99.90;;;4.21;78.30;97962.75;4183857;28;20025;-72
2020/12/04 05:32:16;;;;;;;4.40;2.10;;;4.50;99.90;;;4.08;79.04;97948.75;4200465;28;20031;-72
2020/12/04 05:34:23;;;;;;;6.38;2.50;;;4.60;99.90;;;4.32;78.51;97959.69;4201728;28;20039;-72
2020/12/04 05:36:29;;;;;;;9.10;1.88;;;4.70;99.90;;;4.29;78.29;97952.22;4200548;28;20036;-72
2020/12/04 05:38:30;;;;;;;4.55;1.83;;;4.70;99.90;;;4.39;77.62;97952.72;4198872;28;20020;-72
2020/12/04 05:40:32;;;;;;;5.65;2.15;;;4.80;99.90;;;4.34;77.84;97955.06;4200379;28;20035;-72
2020/12/04 05:42:40;;;;;;;6.55;2.05;;;4.80;99.90;;;4.47;76.80;97960.44;4200281;28;20037;-72
2020/12/04 05:44:54;;;;;;;7.28;2.55;;;4.90;99.90;;;4.53;77.02;97966.72;4200089;28;20035;-72
2020/12/04 05:46:55;;;;;;;8.30;2.67;;;5.00;99.90;;;4.45;77.60;97966.81;4200128;28;20451;-72
2020/12/04 05:48:57;;;;;;;8.65;3.85;;;5.00;99.90;;;4.51;76.87;97973.13;4183517;28;20039;-72
2020/12/04 05:50:59;;;;;;;4.97;2.92;;;5.00;99.90;;;4.52;77.34;97974.72;4200357;28;20028;-72
2020/12/04 05:53:00;;;;;;;9.07;3.15;;;5.10;99.90;;;4.58;76.71;97968.75;4201178;28;20041;-72
2020/12/04 05:55:06;;;;;;;7.03;3.35;;;5.10;99.90;;;4.52;77.33;97959.06;4200045;28;20373;-72
2020/12/04 05:57:10;;;;;;;8.77;4.00;;;5.10;99.90;;;4.52;77.20;97966.88;4201476;28;20054;-72
2020/12/04 05:59:13;;;;;;;13.18;4.13;;;5.10;99.90;;;4.61;77.08;97973.63;4200317;28;20029;-72
2020/12/04 06:01:17;;;;;;;8.17;3.87;;;5.20;99.90;;;4.64;77.04;97973.25;4200050;28;20029;-72
2020/12/04 06:03:18;;;;;;;11.18;5.38;;;5.20;99.90;;;4.68;76.83;97975.31;4188173;28;20060;-72
2020/12/04 06:05:21;;;;;;;10.25;5.43;;;5.20;99.90;;;4.85;76.48;97986.31;4183629;28;20104;-72
2020/12/04 06:07:26;;;;;;;12.52;4.25;;;5.30;99.90;;;4.72;76.57;97986.97;4183386;28;20071;-72
2020/12/04 06:09:27;;;;;;;9.60;4.63;;;5.30;99.90;;;4.65;77.76;97995.75;4183227;28;20029;-72
2020/12/04 06:11:47;;;;;;;8.95;4.78;;;5.30;99.90;;;4.86;76.90;97995.75;4183412;28;20123;-72
2020/12/04 06:13:50;;;;;;;8.27;4.00;;;5.40;99.90;;;4.87;76.73;97997.38;4168055;28;20030;-72
2020/12/04 06:15:51;;;;;;;11.20;4.63;;;5.40;99.90;;;4.86;77.02;98008.81;4184576;28;20025;-72
2020/12/04 06:18:02;;;;;;;8.13;4.60;;;5.50;99.90;;;4.93;75.62;98002.66;4184770;28;20028;-72
2020/12/04 06:20:18;;;;;;;13.52;5.07;;;5.50;99.90;;;4.88;75.63;98004.22;4184672;28;20028;-72
2020/12/04 06:22:19;;;;;;;11.95;5.53;;;5.50;99.90;;;4.86;75.70;98003.59;4183084;28;20076;-72
2020/12/04 06:24:20;;;;;;;9.52;5.60;;;5.50;99.90;;;4.93;76.34;98010.50;4184745;28;20473;-72
2020/12/04 06:26:21;;;;;;;10.30;3.97;;;5.50;99.90;;;4.76;75.80;98003.09;4184622;28;20056;-72
2020/12/04 06:28:30;;;;;;;4.50;3.30;;;5.60;99.90;;;4.79;75.89;98015.78;4183422;28;20512;-72
2020/12/04 06:30:55;;;;;;;5.72;2.67;;;5.60;99.90;;;4.61;77.14;98016.19;4184582;28;20068;-72
2020/12/04 06:32:56;;;;;;;4.18;2.17;;;5.50;99.90;;;4.75;76.92;98004.88;4183530;28;20466;-72
2020/12/04 06:34:57;;;;;;;11.77;2.47;;;5.50;99.90;;;4.70;76.47;98012.47;4183413;28;20029;-72
2020/12/04 06:36:58;;;;;;;3.85;2.30;;;5.50;99.90;;;4.79;76.56;98010.56;4198996;28;20395;-72
2020/12/04 06:39:02;;;;;;;8.20;3.40;;;5.50;99.90;;;4.91;76.28;98011.69;4203187;28;20392;-72
2020/12/04 06:41:26;;;;;;;9.27;3.37;;;5.50;99.90;;;4.57;77.18;98009.72;4203067;28;20028;-72
2020/12/04 06:43:37;;;;;;;4.47;2.20;;;5.40;99.90;;;4.69;76.65;98016.06;4219733;28;20056;-72
2020/12/04 06:45:49;;;;;;;5.68;2.15;;;5.40;99.90;;;4.40;77.47;98019.59;4203200;28;20024;-72
2020/12/04 06:48:16;;;;;;;8.50;2.50;;;5.30;99.90;;;4.39;78.13;98038.06;4204085;28;20056;-72
2020/12/04 06:50:42;;;;;;;3.63;2.50;;;5.30;99.90;;;4.40;78.83;98044.88;4203091;28;20054;-72
2020/12/04 06:52:42;;;;;;;;;;;5.20;99.90;;;4.33;77.67;98038.78;4202722;28;20036;-72
2020/12/04 06:54:49;;;;;;;5.22;1.85;;;5.20;99.90;;;4.60;77.09;98047.72;4202642;28;19963;-72
2020/12/04 06:56:50;;;;;;;4.45;1.92;;;5.30;99.90;;;4.56;77.52;98043.84;4186045;28;20504;-72
2020/12/04 06:58:51;;;;;;;2.97;1.92;;;5.20;99.90;;;4.48;77.74;98049.97;4185940;28;20512;-72
2020/12/04 07:00:56;;;;;;;7.78;1.92;;;5.20;99.90;;;4.46;77.81;98042.34;4185898;28;20060;-72
2020/12/04 07:03:01;;;;;;;6.05;2.83;;;5.20;99.90;;;4.32;79.32;98043.19;4217541;28;20012;-72
2020/12/04 07:05:02;;;;;;;6.15;2.33;;;5.10;99.90;;;4.34;78.56;98048.19;4188777;28;20033;-72
2020/12/04 07:07:15;;;;;;;8.07;2.40;;;5.10;99.90;;;4.33;78.85;98039.56;4201227;28;20037;-72
2020/12/04 07:09:16;;;;;;;3.88;2.10;;;5.10;99.90;;;4.46;78.73;98037.13;4203652;28;20028;-72
2020/12/04 07:11:17;;;;;;;5.43;2.63;;;5.10;99.90;;;4.46;78.59;98029.28;4202310;28;20052;-72
2020/12/04 07:13:19;;;;;;;5.45;1.80;;;5.00;99.90;;;4.50;78.41;98031.53;4203640;28;20032;-72
2020/12/04 07:15:20;;;;;;;5.57;1.83;;;5.00;99.90;;;4.34;78.53;98030.75;4202341;28;20115;-72
2020/12/04 07:17:23;;;;;;;11.55;2.83;;;5.10;99.90;;;4.46;78.00;98031.91;4219052;28;20028;-72
2020/12/04 07:19:26;;;;;;;7.25;2.53;;;5.10;99.90;;;4.54;78.07;98030.97;4202494;28;20073;-72
2020/12/04 07:21:27;;;;;;;5.53;1.98;;;5.10;99.90;;;4.35;78.82;98027.16;4202155;28;20028;-72
2020/12/04 07:23:28;;;;;;;2.92;1.90;;;5.00;99.90;;;4.47;78.01;98025.69;4202350;28;20051;-72
2020/12/04 07:25:29;;;;;;;5.75;2.38;;;5.10;99.90;;;4.55;77.83;98037.81;4203432;28;20028;-72
2020/12/04 07:27:30;;;;;;;4.82;1.80;;;5.00;99.90;;;4.34;77.84;98035.97;4203514;28;20457;-72
2020/12/04 07:29:32;;;;;;;3.40;1.60;;;5.00;99.90;;;4.50;77.66;98049.81;4202313;28;20032;-72
2020/12/04 07:31:34;;;;;;;2.80;1.70;;;5.10;99.90;;;4.42;78.22;98037.69;4203395;28;20044;-72
2020/12/04 07:33:35;;;;;;;6.53;1.67;;;5.00;99.90;;;4.42;79.02;98037.69;4201991;28;20146;-73
2020/12/04 07:35:36;;;;;;;4.53;2.03;;;5.00;99.90;;;4.59;77.68;98044.28;4201974;28;20494;-73
2020/12/04 07:37:37;;;;;;;5.25;2.25;;;5.00;99.90;;;4.64;77.50;98065.44;4200362;28;20028;-73
2020/12/04 07:39:40;;;;;;;7.75;2.00;;;5.00;99.90;;;4.43;78.90;98058.38;4208298;28;20031;-73
2020/12/04 07:41:41;;;;;;;3.58;1.90;;;4.90;99.90;;;4.63;77.13;98063.81;4188079;28;20035;-73
2020/12/04 07:43:43;;;;;;;6.97;1.80;;;4.90;99.90;;;4.59;77.67;98061.75;4185253;28;20523;-73
2020/12/04 07:45:44;;;;;;;4.13;1.75;;;5.00;99.90;;;4.42;78.49;98067.16;4189523;28;20067;-72
2020/12/04 07:47:45;;;;;;;3.10;1.80;;;4.90;99.90;;;4.24;79.27;98071.97;4192010;28;20111;-73
2020/12/04 07:49:51;;;;;;;4.28;1.92;;;4.80;99.90;;;4.40;78.71;98077.00;4185169;28;20150;-73
2020/12/04 07:51:52;;;;;;;3.75;2.38;;;4.80;99.90;;;4.60;78.38;98077.22;4201235;28;20516;-73
2020/12/04 07:53:56;;;;;;;4.75;1.67;;;4.80;99.90;;;4.65;78.17;98074.91;4201743;28;20024;-73
2020/12/04 07:56:02;;;;;;;2.65;2.00;;;4.90;99.90;;;4.74;77.59;98081.63;4185165;28;20501;-73
2020/12/04 07:58:14;;;;;;;5.53;2.13;;;4.90;99.90;;;4.65;77.89;98079.31;4201319;28;20056;-73
2020/12/04 08:00:15;;;;;;;5.50;2.30;;;4.90;99.90;;;4.68;76.90;98084.97;4190964;28;20503;-72
2020/12/04 08:02:24;;;;;;;6.72;2.15;;;4.90;99.90;;;4.54;77.86;98088.41;4189228;28;20020;-72
2020/12/04 08:04:30;;;;;;;5.32;2.20;;;4.90;99.90;;;4.61;78.26;98099.75;4180887;28;20033;-72
2020/12/04 08:06:31;;;;;;;5.43;2.20;;;4.80;99.90;;;4.39;79.16;98095.47;4194611;28;20021;-72
2020/12/04 08:08:32;;;;;;;4.28;2.15;;;4.80;99.90;;;4.42;79.33;98106.31;4193000;28;20235;-72
2020/12/04 08:10:33;;;;;;;4.18;2.03;;;4.80;99.90;;;4.42;78.77;98102.94;4201378;28;20058;-73
2020/12/04 08:12:34;;;;;;;4.85;2.38;;;4.80;99.90;;;4.32;78.77;98105.81;4183655;28;20396;-73
2020/12/04 08:14:37;;;;;;;4.47;2.45;;;4.70;99.90;;;4.21;79.44;98108.84;4198234;28;20612;-72
2020/12/04 08:16:38;;;;;;;6.18;2.53;;;4.70;99.90;;;3.98;79.69;98117.75;4184458;28;20483;-72
2020/12/04 08:18:40;;;;;;;5.70;2.25;;;4.50;99.90;;;4.01;80.02;98122.59;4185695;28;20393;-72
2020/12/04 08:20:41;;;;;;;3.45;2.80;;;4.50;99.90;;;4.03;79.40;98131.06;4196513;28;20432;-72
2020/12/04 08:22:48;;;;;;;5.78;3.03;;;4.40;99.90;;;3.96;79.92;98130.97;4189542;28;20021;-72
2020/12/04 08:27:25;;;;;;;4.00;2.60;;;4.30;99.90;;;3.79;81.27;98114.66;4199097;28;20029;-73
2020/12/04 08:29:26;;;;;;;9.88;6.88;;;4.30;99.90;;;3.70;82.07;98120.13;4201868;28;20039;-72
2020/12/04 08:31:27;;;;;;;10.27;9.18;;;4.30;99.90;;;3.83;82.90;98104.69;4201726;28;20107;-72
2020/12/04 08:33:28;;;;;;;10.18;6.13;;;4.30;99.90;;;3.92;82.64;98108.84;4201662;28;20089;-72
2020/12/04 08:35:41;;;;;;;6.25;5.53;;;4.30;99.90;;;4.04;82.22;98110.00;4200719;28;20096;-72
2020/12/04 08:37:43;;;;;;;5.50;4.05;;;4.40;99.90;;;4.24;81.42;98107.69;4191246;28;20102;-73
2020/12/04 08:39:47;;;;;;;7.18;5.43;;;4.50;99.90;;;4.13;81.86;98122.00;4200654;28;20020;-73
2020/12/04 08:41:48;;;;;;;10.65;7.10;;;4.50;99.90;;;4.11;81.68;98123.97;4200103;28;20028;-73
2020/12/04 08:43:49;;;;;;;4.75;3.05;;;4.50;99.90;;;4.20;81.55;98125.50;4201652;28;20028;-73
2020/12/04 08:45:57;;;;;;;8.85;4.82;;;4.60;99.90;;;4.24;80.99;98131.97;4201800;28;20091;-73
2020/12/04 08:48:14;;;;;;;12.93;6.43;;;4.60;99.90;;;4.24;80.77;98134.56;4200547;28;20399;-73
2020/12/04 08:50:19;;;;;;;7.70;3.70;;;4.60;99.90;;;4.12;81.00;98146.44;4201697;28;20520;-73